sensor_id;sensor_type;location;lat;lon;timestamp;P1;durP1;ratioP1;P2;durP2;ratioP2
19016;SDS011;9641;51.494;6.670;2023-08-12T00:01:43;11.10;;;7.05;;
19016;SDS011;9641;51.494;6.670;2023-08-12T00:04:10;11.57;;;8.40;;
19016;SDS011;9641;51.494;6.670;2023-08-12T00:06:39;14.43;;;8.95;;
19016;SDS011;9641;51.494;6.670;2023-08-12T00:09:07;11.35;;;8.75;;
19016;SDS011;9641;51.494;6.670;2023-08-12T00:11:36;8.70;;;6.95;;
19016;SDS011;9641;51.494;6.670;2023-08-12T00:14:03;13.10;;;8.55;;
19016;SDS011;9641;51.494;6.670;2023-08-12T00:16:30;9.88;;;7.50;;
19016;SDS011;9641;51.494;6.670;2023-08-12T00:18:57;11.70;;;6.75;;
19016;SDS011;9641;51.494;6.670;2023-08-12T00:21:25;8.77;;;7.07;;
19016;SDS011;9641;51.494;6.670;2023-08-12T00:23:52;13.73;;;8.15;;
19016;SDS011;9641;51.494;6.670;2023-08-12T00:26:19;9.43;;;7.65;;
19016;SDS011;9641;51.494;6.670;2023-08-12T00:28:48;10.07;;;7.97;;
19016;SDS011;9641;51.494;6.670;2023-08-12T00:31:15;9.13;;;6.97;;
19016;SDS011;9641;51.494;6.670;2023-08-12T00:33:42;10.07;;;7.80;;
19016;SDS011;9641;51.494;6.670;2023-08-12T00:36:09;10.43;;;7.85;;
19016;SDS011;9641;51.494;6.670;2023-08-12T00:38:36;9.25;;;7.20;;
19016;SDS011;9641;51.494;6.670;2023-08-12T00:41:05;9.98;;;7.35;;
19016;SDS011;9641;51.494;6.670;2023-08-12T00:43:32;9.80;;;6.75;;
19016;SDS011;9641;51.494;6.670;2023-08-12T00:46:00;9.82;;;7.18;;
19016;SDS011;9641;51.494;6.670;2023-08-12T00:48:27;7.15;;;6.30;;
19016;SDS011;9641;51.494;6.670;2023-08-12T00:50:54;10.10;;;7.32;;
19016;SDS011;9641;51.494;6.670;2023-08-12T00:53:21;9.77;;;7.32;;
19016;SDS011;9641;51.494;6.670;2023-08-12T00:55:48;8.18;;;7.35;;
19016;SDS011;9641;51.494;6.670;2023-08-12T00:58:15;12.57;;;7.70;;
19016;SDS011;9641;51.494;6.670;2023-08-12T01:00:42;8.38;;;7.45;;
19016;SDS011;9641;51.494;6.670;2023-08-12T01:03:11;7.93;;;6.32;;
19016;SDS011;9641;51.494;6.670;2023-08-12T01:05:38;8.50;;;6.53;;
19016;SDS011;9641;51.494;6.670;2023-08-12T01:08:05;7.20;;;6.50;;
19016;SDS011;9641;51.494;6.670;2023-08-12T01:10:33;11.68;;;6.90;;
19016;SDS011;9641;51.494;6.670;2023-08-12T01:13:04;10.98;;;7.28;;
19016;SDS011;9641;51.494;6.670;2023-08-12T01:15:39;7.68;;;6.32;;
19016;SDS011;9641;51.494;6.670;2023-08-12T01:18:09;11.57;;;7.65;;
19016;SDS011;9641;51.494;6.670;2023-08-12T01:20:38;9.68;;;6.32;;
19016;SDS011;9641;51.494;6.670;2023-08-12T01:23:09;9.98;;;6.38;;
19016;SDS011;9641;51.494;6.670;2023-08-12T01:25:37;9.48;;;6.53;;
19016;SDS011;9641;51.494;6.670;2023-08-12T01:28:04;10.05;;;7.07;;
19016;SDS011;9641;51.494;6.670;2023-08-12T01:30:32;8.65;;;6.70;;
19016;SDS011;9641;51.494;6.670;2023-08-12T01:33:01;8.02;;;6.55;;
19016;SDS011;9641;51.494;6.670;2023-08-12T01:35:35;11.80;;;6.60;;
19016;SDS011;9641;51.494;6.670;2023-08-12T01:38:06;11.43;;;8.23;;
19016;SDS011;9641;51.494;6.670;2023-08-12T01:40:38;14.07;;;8.27;;
19016;SDS011;9641;51.494;6.670;2023-08-12T01:43:06;10.95;;;7.50;;
19016;SDS011;9641;51.494;6.670;2023-08-12T01:45:35;8.82;;;7.20;;
19016;SDS011;9641;51.494;6.670;2023-08-12T01:48:02;10.43;;;7.13;;
19016;SDS011;9641;51.494;6.670;2023-08-12T01:50:30;9.05;;;8.10;;
19016;SDS011;9641;51.494;6.670;2023-08-12T01:52:57;11.77;;;8.55;;
19016;SDS011;9641;51.494;6.670;2023-08-12T01:57:54;14.43;;;8.38;;
19016;SDS011;9641;51.494;6.670;2023-08-12T02:00:22;13.18;;;9.30;;
19016;SDS011;9641;51.494;6.670;2023-08-12T02:02:49;11.27;;;8.70;;
19016;SDS011;9641;51.494;6.670;2023-08-12T02:05:16;11.80;;;9.25;;
19016;SDS011;9641;51.494;6.670;2023-08-12T02:07:43;16.98;;;10.45;;
19016;SDS011;9641;51.494;6.670;2023-08-12T02:10:10;15.32;;;10.13;;
19016;SDS011;9641;51.494;6.670;2023-08-12T02:12:39;16.35;;;10.60;;
19016;SDS011;9641;51.494;6.670;2023-08-12T02:15:08;15.00;;;10.40;;
19016;SDS011;9641;51.494;6.670;2023-08-12T02:17:36;17.67;;;11.57;;
19016;SDS011;9641;51.494;6.670;2023-08-12T02:20:04;13.60;;;10.40;;
19016;SDS011;9641;51.494;6.670;2023-08-12T02:22:32;17.13;;;11.65;;
19016;SDS011;9641;51.494;6.670;2023-08-12T02:25:00;25.33;;;13.05;;
19016;SDS011;9641;51.494;6.670;2023-08-12T02:27:28;21.23;;;12.65;;
19016;SDS011;9641;51.494;6.670;2023-08-12T02:29:57;18.27;;;12.88;;
19016;SDS011;9641;51.494;6.670;2023-08-12T02:32:27;18.67;;;12.23;;
19016;SDS011;9641;51.494;6.670;2023-08-12T02:34:54;17.63;;;12.82;;
19016;SDS011;9641;51.494;6.670;2023-08-12T02:37:22;22.33;;;12.88;;
19016;SDS011;9641;51.494;6.670;2023-08-12T02:39:49;19.40;;;13.50;;
19016;SDS011;9641;51.494;6.670;2023-08-12T02:42:16;17.23;;;12.43;;
19016;SDS011;9641;51.494;6.670;2023-08-12T02:44:44;18.25;;;12.65;;
19016;SDS011;9641;51.494;6.670;2023-08-12T02:47:12;15.40;;;12.23;;
19016;SDS011;9641;51.494;6.670;2023-08-12T02:49:42;18.80;;;13.00;;
19016;SDS011;9641;51.494;6.670;2023-08-12T02:52:10;19.45;;;13.60;;
19016;SDS011;9641;51.494;6.670;2023-08-12T02:54:38;18.85;;;11.68;;
19016;SDS011;9641;51.494;6.670;2023-08-12T02:57:08;21.58;;;14.15;;
19016;SDS011;9641;51.494;6.670;2023-08-12T02:59:36;19.13;;;13.32;;
19016;SDS011;9641;51.494;6.670;2023-08-12T03:02:03;29.33;;;15.82;;
19016;SDS011;9641;51.494;6.670;2023-08-12T03:04:30;21.38;;;12.93;;
19016;SDS011;9641;51.494;6.670;2023-08-12T03:06:59;20.08;;;13.63;;
19016;SDS011;9641;51.494;6.670;2023-08-12T03:09:27;19.52;;;13.77;;
19016;SDS011;9641;51.494;6.670;2023-08-12T03:11:54;19.08;;;12.82;;
19016;SDS011;9641;51.494;6.670;2023-08-12T03:14:22;16.77;;;12.02;;
19016;SDS011;9641;51.494;6.670;2023-08-12T03:16:49;22.15;;;12.35;;
19016;SDS011;9641;51.494;6.670;2023-08-12T03:19:16;17.52;;;12.85;;
19016;SDS011;9641;51.494;6.670;2023-08-12T03:21:44;17.88;;;12.32;;
19016;SDS011;9641;51.494;6.670;2023-08-12T03:24:12;12.93;;;10.90;;
19016;SDS011;9641;51.494;6.670;2023-08-12T03:26:39;16.13;;;11.68;;
19016;SDS011;9641;51.494;6.670;2023-08-12T03:29:07;16.85;;;11.70;;
19016;SDS011;9641;51.494;6.670;2023-08-12T03:31:37;18.75;;;13.32;;
19016;SDS011;9641;51.494;6.670;2023-08-12T03:34:04;24.45;;;14.23;;
19016;SDS011;9641;51.494;6.670;2023-08-12T03:36:32;23.45;;;15.70;;
19016;SDS011;9641;51.494;6.670;2023-08-12T03:38:59;28.42;;;16.90;;
19016;SDS011;9641;51.494;6.670;2023-08-12T03:41:29;24.75;;;16.10;;
19016;SDS011;9641;51.494;6.670;2023-08-12T03:43:59;24.27;;;16.85;;
19016;SDS011;9641;51.494;6.670;2023-08-12T03:46:27;25.05;;;17.83;;
19016;SDS011;9641;51.494;6.670;2023-08-12T03:48:54;28.45;;;16.52;;
19016;SDS011;9641;51.494;6.670;2023-08-12T03:51:21;25.75;;;16.30;;
19016;SDS011;9641;51.494;6.670;2023-08-12T03:53:48;25.20;;;16.88;;
19016;SDS011;9641;51.494;6.670;2023-08-12T03:56:15;26.73;;;17.92;;
19016;SDS011;9641;51.494;6.670;2023-08-12T03:58:44;26.95;;;18.17;;
19016;SDS011;9641;51.494;6.670;2023-08-12T04:01:11;22.85;;;16.67;;
19016;SDS011;9641;51.494;6.670;2023-08-12T04:03:38;33.25;;;19.35;;
19016;SDS011;9641;51.494;6.670;2023-08-12T04:06:05;32.55;;;20.63;;
19016;SDS011;9641;51.494;6.670;2023-08-12T04:08:32;27.92;;;17.35;;
19016;SDS011;9641;51.494;6.670;2023-08-12T04:10:59;23.95;;;17.58;;
19016;SDS011;9641;51.494;6.670;2023-08-12T04:13:26;31.30;;;19.63;;
19016;SDS011;9641;51.494;6.670;2023-08-12T04:15:55;24.65;;;16.40;;
19016;SDS011;9641;51.494;6.670;2023-08-12T04:18:24;24.52;;;16.58;;
19016;SDS011;9641;51.494;6.670;2023-08-12T04:20:52;24.90;;;17.25;;
19016;SDS011;9641;51.494;6.670;2023-08-12T04:23:19;26.88;;;16.10;;
19016;SDS011;9641;51.494;6.670;2023-08-12T04:25:48;24.42;;;16.42;;
19016;SDS011;9641;51.494;6.670;2023-08-12T04:28:17;22.83;;;16.33;;
19016;SDS011;9641;51.494;6.670;2023-08-12T04:30:48;24.25;;;16.40;;
19016;SDS011;9641;51.494;6.670;2023-08-12T04:33:20;30.00;;;17.85;;
19016;SDS011;9641;51.494;6.670;2023-08-12T04:35:48;26.73;;;16.83;;
19016;SDS011;9641;51.494;6.670;2023-08-12T04:38:16;27.38;;;17.38;;
19016;SDS011;9641;51.494;6.670;2023-08-12T04:40:44;29.33;;;17.45;;
19016;SDS011;9641;51.494;6.670;2023-08-12T04:43:12;23.60;;;15.45;;
19016;SDS011;9641;51.494;6.670;2023-08-12T04:45:44;23.15;;;15.50;;
19016;SDS011;9641;51.494;6.670;2023-08-12T04:48:12;21.58;;;14.75;;
19016;SDS011;9641;51.494;6.670;2023-08-12T04:50:42;22.90;;;15.38;;
19016;SDS011;9641;51.494;6.670;2023-08-12T04:53:10;22.38;;;15.73;;
19016;SDS011;9641;51.494;6.670;2023-08-12T04:55:41;19.67;;;13.65;;
19016;SDS011;9641;51.494;6.670;2023-08-12T04:58:08;24.55;;;14.68;;
19016;SDS011;9641;51.494;6.670;2023-08-12T05:00:36;22.60;;;13.75;;
19016;SDS011;9641;51.494;6.670;2023-08-12T05:03:03;22.98;;;13.63;;
19016;SDS011;9641;51.494;6.670;2023-08-12T05:05:31;18.67;;;12.77;;
19016;SDS011;9641;51.494;6.670;2023-08-12T05:08:04;21.30;;;14.93;;
19016;SDS011;9641;51.494;6.670;2023-08-12T05:10:33;18.13;;;12.88;;
19016;SDS011;9641;51.494;6.670;2023-08-12T05:13:00;17.60;;;11.82;;
19016;SDS011;9641;51.494;6.670;2023-08-12T05:15:27;20.23;;;13.07;;
19016;SDS011;9641;51.494;6.670;2023-08-12T05:17:56;21.80;;;14.82;;
19016;SDS011;9641;51.494;6.670;2023-08-12T05:20:24;19.05;;;12.50;;
19016;SDS011;9641;51.494;6.670;2023-08-12T05:22:51;20.58;;;12.35;;
19016;SDS011;9641;51.494;6.670;2023-08-12T05:25:20;16.25;;;12.15;;
19016;SDS011;9641;51.494;6.670;2023-08-12T05:27:47;16.70;;;12.38;;
19016;SDS011;9641;51.494;6.670;2023-08-12T05:30:15;19.52;;;13.20;;
19016;SDS011;9641;51.494;6.670;2023-08-12T05:32:42;17.77;;;12.82;;
19016;SDS011;9641;51.494;6.670;2023-08-12T05:35:09;23.33;;;13.80;;
19016;SDS011;9641;51.494;6.670;2023-08-12T05:37:36;21.65;;;14.43;;
19016;SDS011;9641;51.494;6.670;2023-08-12T05:40:08;20.92;;;14.30;;
19016;SDS011;9641;51.494;6.670;2023-08-12T05:42:38;25.13;;;15.40;;
19016;SDS011;9641;51.494;6.670;2023-08-12T05:45:05;22.48;;;14.10;;
19016;SDS011;9641;51.494;6.670;2023-08-12T05:47:33;20.13;;;14.57;;
19016;SDS011;9641;51.494;6.670;2023-08-12T05:50:00;28.90;;;16.42;;
19016;SDS011;9641;51.494;6.670;2023-08-12T05:52:27;21.35;;;13.05;;
19016;SDS011;9641;51.494;6.670;2023-08-12T05:54:54;18.83;;;11.60;;
19016;SDS011;9641;51.494;6.670;2023-08-12T05:57:22;18.10;;;12.27;;
19016;SDS011;9641;51.494;6.670;2023-08-12T05:59:51;21.58;;;11.75;;
19016;SDS011;9641;51.494;6.670;2023-08-12T06:02:18;17.48;;;13.55;;
19016;SDS011;9641;51.494;6.670;2023-08-12T06:04:45;16.23;;;10.95;;
19016;SDS011;9641;51.494;6.670;2023-08-12T06:07:12;15.07;;;11.40;;
19016;SDS011;9641;51.494;6.670;2023-08-12T06:09:39;15.55;;;10.57;;
19016;SDS011;9641;51.494;6.670;2023-08-12T06:12:07;16.83;;;11.02;;
19016;SDS011;9641;51.494;6.670;2023-08-12T06:14:36;16.67;;;11.45;;
19016;SDS011;9641;51.494;6.670;2023-08-12T06:17:07;18.08;;;11.82;;
19016;SDS011;9641;51.494;6.670;2023-08-12T06:19:34;25.58;;;13.38;;
19016;SDS011;9641;51.494;6.670;2023-08-12T06:22:02;19.27;;;12.93;;
19016;SDS011;9641;51.494;6.670;2023-08-12T06:24:29;18.30;;;12.18;;
19016;SDS011;9641;51.494;6.670;2023-08-12T06:26:57;17.60;;;12.60;;
19016;SDS011;9641;51.494;6.670;2023-08-12T06:29:24;17.50;;;11.80;;
19016;SDS011;9641;51.494;6.670;2023-08-12T06:31:52;20.00;;;12.80;;
19016;SDS011;9641;51.494;6.670;2023-08-12T06:34:21;20.85;;;15.85;;
19016;SDS011;9641;51.494;6.670;2023-08-12T06:36:51;26.20;;;16.08;;
19016;SDS011;9641;51.494;6.670;2023-08-12T06:39:18;26.08;;;18.80;;
19016;SDS011;9641;51.494;6.670;2023-08-12T06:41:46;26.27;;;17.42;;
19016;SDS011;9641;51.494;6.670;2023-08-12T06:44:13;27.15;;;17.70;;
19016;SDS011;9641;51.494;6.670;2023-08-12T06:46:40;25.70;;;18.70;;
19016;SDS011;9641;51.494;6.670;2023-08-12T06:49:07;31.40;;;18.98;;
19016;SDS011;9641;51.494;6.670;2023-08-12T06:51:39;22.42;;;16.35;;
19016;SDS011;9641;51.494;6.670;2023-08-12T06:54:06;27.20;;;18.77;;
19016;SDS011;9641;51.494;6.670;2023-08-12T06:56:33;25.30;;;17.33;;
19016;SDS011;9641;51.494;6.670;2023-08-12T06:59:00;25.10;;;18.05;;
19016;SDS011;9641;51.494;6.670;2023-08-12T07:01:28;22.00;;;15.93;;
19016;SDS011;9641;51.494;6.670;2023-08-12T07:03:55;23.00;;;16.23;;
19016;SDS011;9641;51.494;6.670;2023-08-12T07:06:22;24.15;;;17.50;;
19016;SDS011;9641;51.494;6.670;2023-08-12T07:08:50;23.85;;;16.75;;
19016;SDS011;9641;51.494;6.670;2023-08-12T07:11:17;21.05;;;15.90;;
19016;SDS011;9641;51.494;6.670;2023-08-12T07:13:44;20.98;;;14.85;;
19016;SDS011;9641;51.494;6.670;2023-08-12T07:16:12;18.30;;;13.73;;
19016;SDS011;9641;51.494;6.670;2023-08-12T07:18:39;20.52;;;15.85;;
19016;SDS011;9641;51.494;6.670;2023-08-12T07:21:05;16.23;;;12.75;;
19016;SDS011;9641;51.494;6.670;2023-08-12T07:23:32;15.25;;;12.82;;
19016;SDS011;9641;51.494;6.670;2023-08-12T07:26:01;14.13;;;11.00;;
19016;SDS011;9641;51.494;6.670;2023-08-12T07:28:28;17.80;;;13.63;;
19016;SDS011;9641;51.494;6.670;2023-08-12T07:30:55;13.40;;;11.52;;
19016;SDS011;9641;51.494;6.670;2023-08-12T07:33:22;13.40;;;10.52;;
19016;SDS011;9641;51.494;6.670;2023-08-12T07:35:49;13.05;;;11.25;;
19016;SDS011;9641;51.494;6.670;2023-08-12T07:38:16;16.27;;;11.70;;
19016;SDS011;9641;51.494;6.670;2023-08-12T07:40:43;12.15;;;10.57;;
19016;SDS011;9641;51.494;6.670;2023-08-12T07:43:12;15.02;;;10.35;;
19016;SDS011;9641;51.494;6.670;2023-08-12T07:45:39;11.57;;;10.38;;
19016;SDS011;9641;51.494;6.670;2023-08-12T07:48:06;14.15;;;11.65;;
19016;SDS011;9641;51.494;6.670;2023-08-12T07:50:33;18.40;;;11.48;;
19016;SDS011;9641;51.494;6.670;2023-08-12T07:53:01;12.88;;;10.82;;
19016;SDS011;9641;51.494;6.670;2023-08-12T07:55:28;12.02;;;10.75;;
19016;SDS011;9641;51.494;6.670;2023-08-12T07:57:55;13.80;;;11.32;;
19016;SDS011;9641;51.494;6.670;2023-08-12T08:00:24;13.23;;;9.48;;
19016;SDS011;9641;51.494;6.670;2023-08-12T08:02:51;12.57;;;9.88;;
19016;SDS011;9641;51.494;6.670;2023-08-12T08:05:18;14.13;;;11.25;;
19016;SDS011;9641;51.494;6.670;2023-08-12T08:07:45;12.23;;;9.38;;
19016;SDS011;9641;51.494;6.670;2023-08-12T08:10:13;14.10;;;9.82;;
19016;SDS011;9641;51.494;6.670;2023-08-12T08:12:40;12.07;;;9.93;;
19016;SDS011;9641;51.494;6.670;2023-08-12T08:15:07;10.43;;;9.27;;
19016;SDS011;9641;51.494;6.670;2023-08-12T08:17:36;10.55;;;7.88;;
19016;SDS011;9641;51.494;6.670;2023-08-12T08:20:04;8.88;;;7.70;;
19016;SDS011;9641;51.494;6.670;2023-08-12T08:22:32;8.68;;;7.82;;
19016;SDS011;9641;51.494;6.670;2023-08-12T08:24:59;7.35;;;6.53;;
19016;SDS011;9641;51.494;6.670;2023-08-12T08:27:26;10.95;;;7.68;;
19016;SDS011;9641;51.494;6.670;2023-08-12T08:29:53;7.55;;;6.32;;
19016;SDS011;9641;51.494;6.670;2023-08-12T08:32:20;7.28;;;6.20;;
19016;SDS011;9641;51.494;6.670;2023-08-12T08:34:52;7.10;;;5.97;;
19016;SDS011;9641;51.494;6.670;2023-08-12T08:37:19;9.35;;;5.72;;
19016;SDS011;9641;51.494;6.670;2023-08-12T08:39:47;10.30;;;5.25;;
19016;SDS011;9641;51.494;6.670;2023-08-12T08:42:14;5.05;;;4.28;;
19016;SDS011;9641;51.494;6.670;2023-08-12T08:44:43;5.20;;;3.97;;
19016;SDS011;9641;51.494;6.670;2023-08-12T08:47:15;4.30;;;3.72;;
19016;SDS011;9641;51.494;6.670;2023-08-12T08:49:45;7.57;;;4.10;;
19016;SDS011;9641;51.494;6.670;2023-08-12T08:52:14;5.15;;;4.00;;
19016;SDS011;9641;51.494;6.670;2023-08-12T08:54:42;3.70;;;3.40;;
19016;SDS011;9641;51.494;6.670;2023-08-12T08:57:09;3.53;;;3.22;;
19016;SDS011;9641;51.494;6.670;2023-08-12T08:59:37;5.68;;;3.33;;
19016;SDS011;9641;51.494;6.670;2023-08-12T09:02:04;4.00;;;3.58;;
19016;SDS011;9641;51.494;6.670;2023-08-12T09:04:36;5.88;;;3.38;;
19016;SDS011;9641;51.494;6.670;2023-08-12T09:07:03;3.78;;;2.83;;
19016;SDS011;9641;51.494;6.670;2023-08-12T09:09:32;4.22;;;3.25;;
19016;SDS011;9641;51.494;6.670;2023-08-12T09:12:00;3.72;;;3.05;;
19016;SDS011;9641;51.494;6.670;2023-08-12T09:14:28;3.33;;;3.03;;
19016;SDS011;9641;51.494;6.670;2023-08-12T09:16:55;3.45;;;3.15;;
19016;SDS011;9641;51.494;6.670;2023-08-12T09:19:24;9.27;;;3.30;;
19016;SDS011;9641;51.494;6.670;2023-08-12T09:21:52;4.32;;;3.00;;
19016;SDS011;9641;51.494;6.670;2023-08-12T09:24:25;3.88;;;3.08;;
19016;SDS011;9641;51.494;6.670;2023-08-12T09:26:56;3.60;;;2.80;;
19016;SDS011;9641;51.494;6.670;2023-08-12T09:29:23;3.22;;;2.67;;
19016;SDS011;9641;51.494;6.670;2023-08-12T09:31:55;2.83;;;2.53;;
19016;SDS011;9641;51.494;6.670;2023-08-12T09:34:33;6.65;;;2.53;;
19016;SDS011;9641;51.494;6.670;2023-08-12T09:37:00;8.18;;;3.78;;
19016;SDS011;9641;51.494;6.670;2023-08-12T09:39:35;9.15;;;4.50;;
19016;SDS011;9641;51.494;6.670;2023-08-12T09:42:04;3.35;;;2.90;;
19016;SDS011;9641;51.494;6.670;2023-08-12T09:44:34;5.65;;;2.50;;
19016;SDS011;9641;51.494;6.670;2023-08-12T09:47:01;2.90;;;2.70;;
19016;SDS011;9641;51.494;6.670;2023-08-12T09:49:29;3.03;;;2.78;;
19016;SDS011;9641;51.494;6.670;2023-08-12T09:51:56;2.65;;;2.45;;
19016;SDS011;9641;51.494;6.670;2023-08-12T09:54:26;2.58;;;2.38;;
19016;SDS011;9641;51.494;6.670;2023-08-12T09:56:57;3.13;;;2.58;;
19016;SDS011;9641;51.494;6.670;2023-08-12T09:59:29;3.05;;;2.28;;
19016;SDS011;9641;51.494;6.670;2023-08-12T10:01:59;2.90;;;2.50;;
19016;SDS011;9641;51.494;6.670;2023-08-12T10:04:31;2.58;;;2.38;;
19016;SDS011;9641;51.494;6.670;2023-08-12T10:07:06;3.35;;;2.50;;
19016;SDS011;9641;51.494;6.670;2023-08-12T10:09:41;4.10;;;2.38;;
19016;SDS011;9641;51.494;6.670;2023-08-12T10:12:10;2.30;;;2.10;;
19016;SDS011;9641;51.494;6.670;2023-08-12T10:14:40;2.70;;;2.33;;
19016;SDS011;9641;51.494;6.670;2023-08-12T10:17:08;3.58;;;2.40;;
19016;SDS011;9641;51.494;6.670;2023-08-12T10:19:46;3.63;;;2.30;;
19016;SDS011;9641;51.494;6.670;2023-08-12T10:22:15;2.70;;;2.47;;
19016;SDS011;9641;51.494;6.670;2023-08-12T10:24:43;3.00;;;2.33;;
19016;SDS011;9641;51.494;6.670;2023-08-12T10:27:12;4.35;;;2.63;;
19016;SDS011;9641;51.494;6.670;2023-08-12T10:29:43;4.45;;;2.55;;
19016;SDS011;9641;51.494;6.670;2023-08-12T10:32:10;2.92;;;2.33;;
19016;SDS011;9641;51.494;6.670;2023-08-12T10:34:39;5.80;;;2.60;;
19016;SDS011;9641;51.494;6.670;2023-08-12T10:37:07;3.17;;;2.38;;
19016;SDS011;9641;51.494;6.670;2023-08-12T10:42:08;2.95;;;2.20;;
19016;SDS011;9641;51.494;6.670;2023-08-12T10:44:38;2.88;;;2.42;;
19016;SDS011;9641;51.494;6.670;2023-08-12T10:47:09;2.28;;;2.08;;
19016;SDS011;9641;51.494;6.670;2023-08-12T10:49:38;2.35;;;2.10;;
19016;SDS011;9641;51.494;6.670;2023-08-12T10:52:18;2.03;;;1.92;;
19016;SDS011;9641;51.494;6.670;2023-08-12T10:54:53;2.35;;;1.90;;
19016;SDS011;9641;51.494;6.670;2023-08-12T10:57:25;2.05;;;1.95;;
19016;SDS011;9641;51.494;6.670;2023-08-12T11:00:03;2.08;;;1.98;;
19016;SDS011;9641;51.494;6.670;2023-08-12T11:02:34;2.05;;;1.90;;
19016;SDS011;9641;51.494;6.670;2023-08-12T11:05:01;2.20;;;2.00;;
19016;SDS011;9641;51.494;6.670;2023-08-12T11:07:34;2.13;;;2.00;;
19016;SDS011;9641;51.494;6.670;2023-08-12T11:10:05;2.22;;;2.13;;
19016;SDS011;9641;51.494;6.670;2023-08-12T11:12:38;2.90;;;2.60;;
19016;SDS011;9641;51.494;6.670;2023-08-12T11:15:06;2.10;;;1.90;;
19016;SDS011;9641;51.494;6.670;2023-08-12T11:17:36;2.45;;;2.25;;
19016;SDS011;9641;51.494;6.670;2023-08-12T11:20:06;2.28;;;2.17;;
19016;SDS011;9641;51.494;6.670;2023-08-12T11:22:35;2.83;;;2.60;;
19016;SDS011;9641;51.494;6.670;2023-08-12T11:25:04;2.80;;;2.60;;
19016;SDS011;9641;51.494;6.670;2023-08-12T11:27:39;3.47;;;3.20;;
19016;SDS011;9641;51.494;6.670;2023-08-12T11:30:09;3.58;;;3.28;;
19016;SDS011;9641;51.494;6.670;2023-08-12T11:32:39;2.97;;;2.78;;
19016;SDS011;9641;51.494;6.670;2023-08-12T11:35:08;3.60;;;3.30;;
19016;SDS011;9641;51.494;6.670;2023-08-12T11:37:36;3.63;;;3.40;;
19016;SDS011;9641;51.494;6.670;2023-08-12T11:40:04;4.10;;;3.80;;
19016;SDS011;9641;51.494;6.670;2023-08-12T11:42:34;3.50;;;3.30;;
19016;SDS011;9641;51.494;6.670;2023-08-12T11:45:01;3.55;;;3.35;;
19016;SDS011;9641;51.494;6.670;2023-08-12T11:47:28;3.70;;;3.15;;
19016;SDS011;9641;51.494;6.670;2023-08-12T11:49:57;4.35;;;3.92;;
19016;SDS011;9641;51.494;6.670;2023-08-12T11:52:24;5.90;;;5.40;;
19016;SDS011;9641;51.494;6.670;2023-08-12T11:54:51;6.90;;;5.60;;
19016;SDS011;9641;51.494;6.670;2023-08-12T11:57:19;8.18;;;6.35;;
19016;SDS011;9641;51.494;6.670;2023-08-12T11:59:49;6.40;;;5.80;;
19016;SDS011;9641;51.494;6.670;2023-08-12T12:02:16;6.45;;;5.85;;
19016;SDS011;9641;51.494;6.670;2023-08-12T12:04:44;6.47;;;5.85;;
19016;SDS011;9641;51.494;6.670;2023-08-12T12:07:19;6.00;;;5.50;;
19016;SDS011;9641;51.494;6.670;2023-08-12T12:09:50;5.65;;;5.22;;
19016;SDS011;9641;51.494;6.670;2023-08-12T12:12:18;7.65;;;6.95;;
19016;SDS011;9641;51.494;6.670;2023-08-12T12:14:48;6.88;;;6.30;;
19016;SDS011;9641;51.494;6.670;2023-08-12T12:17:15;7.13;;;6.53;;
19016;SDS011;9641;51.494;6.670;2023-08-12T12:19:42;8.85;;;7.95;;
19016;SDS011;9641;51.494;6.670;2023-08-12T12:22:10;7.30;;;6.60;;
19016;SDS011;9641;51.494;6.670;2023-08-12T12:24:45;7.93;;;7.20;;
19016;SDS011;9641;51.494;6.670;2023-08-12T12:27:13;8.80;;;7.93;;
19016;SDS011;9641;51.494;6.670;2023-08-12T12:29:40;8.25;;;7.55;;
19016;SDS011;9641;51.494;6.670;2023-08-12T12:32:07;7.13;;;6.53;;
19016;SDS011;9641;51.494;6.670;2023-08-12T12:34:34;8.43;;;7.53;;
19016;SDS011;9641;51.494;6.670;2023-08-12T12:37:02;6.45;;;5.88;;
19016;SDS011;9641;51.494;6.670;2023-08-12T12:39:29;6.57;;;6.07;;
19016;SDS011;9641;51.494;6.670;2023-08-12T12:41:57;7.60;;;6.90;;
19016;SDS011;9641;51.494;6.670;2023-08-12T12:44:25;6.50;;;5.97;;
19016;SDS011;9641;51.494;6.670;2023-08-12T12:46:52;7.00;;;6.40;;
19016;SDS011;9641;51.494;6.670;2023-08-12T12:49:19;7.60;;;6.85;;
19016;SDS011;9641;51.494;6.670;2023-08-12T12:51:47;7.03;;;6.45;;
19016;SDS011;9641;51.494;6.670;2023-08-12T12:54:14;8.25;;;7.55;;
19016;SDS011;9641;51.494;6.670;2023-08-12T12:56:41;8.45;;;7.53;;
19016;SDS011;9641;51.494;6.670;2023-08-12T12:59:09;7.90;;;7.10;;
19016;SDS011;9641;51.494;6.670;2023-08-12T13:01:36;6.65;;;6.03;;
19016;SDS011;9641;51.494;6.670;2023-08-12T13:04:03;7.10;;;6.50;;
19016;SDS011;9641;51.494;6.670;2023-08-12T13:06:31;6.38;;;5.80;;
19016;SDS011;9641;51.494;6.670;2023-08-12T13:08:58;5.75;;;5.25;;
19016;SDS011;9641;51.494;6.670;2023-08-12T13:11:25;6.35;;;5.75;;
19016;SDS011;9641;51.494;6.670;2023-08-12T13:13:53;5.97;;;5.47;;
19016;SDS011;9641;51.494;6.670;2023-08-12T13:16:29;6.28;;;5.68;;
19016;SDS011;9641;51.494;6.670;2023-08-12T13:19:00;6.57;;;6.07;;
19016;SDS011;9641;51.494;6.670;2023-08-12T13:21:27;6.25;;;5.53;;
19016;SDS011;9641;51.494;6.670;2023-08-12T13:23:54;5.95;;;5.47;;
19016;SDS011;9641;51.494;6.670;2023-08-12T13:26:22;4.90;;;4.40;;
19016;SDS011;9641;51.494;6.670;2023-08-12T13:28:49;3.92;;;3.63;;
19016;SDS011;9641;51.494;6.670;2023-08-12T13:31:22;4.40;;;3.95;;
19016;SDS011;9641;51.494;6.670;2023-08-12T13:33:51;3.55;;;3.25;;
19016;SDS011;9641;51.494;6.670;2023-08-12T13:36:18;3.95;;;3.55;;
19016;SDS011;9641;51.494;6.670;2023-08-12T13:38:48;3.20;;;3.00;;
19016;SDS011;9641;51.494;6.670;2023-08-12T13:41:34;3.50;;;3.20;;
19016;SDS011;9641;51.494;6.670;2023-08-12T13:44:01;3.85;;;3.13;;
19016;SDS011;9641;51.494;6.670;2023-08-12T13:46:28;2.97;;;2.63;;
19016;SDS011;9641;51.494;6.670;2023-08-12T13:48:57;3.25;;;2.95;;
19016;SDS011;9641;51.494;6.670;2023-08-12T13:51:24;3.88;;;2.85;;
19016;SDS011;9641;51.494;6.670;2023-08-12T13:53:51;3.03;;;2.47;;
19016;SDS011;9641;51.494;6.670;2023-08-12T13:56:18;3.10;;;2.53;;
19016;SDS011;9641;51.494;6.670;2023-08-12T13:58:45;7.35;;;3.00;;
19016;SDS011;9641;51.494;6.670;2023-08-12T14:01:13;2.35;;;2.15;;
19016;SDS011;9641;51.494;6.670;2023-08-12T14:03:40;3.90;;;2.53;;
19016;SDS011;9641;51.494;6.670;2023-08-12T14:06:09;4.13;;;2.72;;
19016;SDS011;9641;51.494;6.670;2023-08-12T14:08:36;2.53;;;2.33;;
19016;SDS011;9641;51.494;6.670;2023-08-12T14:11:06;2.95;;;2.22;;
19016;SDS011;9641;51.494;6.670;2023-08-12T14:13:33;2.42;;;2.00;;
19016;SDS011;9641;51.494;6.670;2023-08-12T14:16:03;2.20;;;2.00;;
19016;SDS011;9641;51.494;6.670;2023-08-12T14:18:31;2.65;;;2.03;;
19016;SDS011;9641;51.494;6.670;2023-08-12T14:21:02;2.90;;;2.10;;
19016;SDS011;9641;51.494;6.670;2023-08-12T14:23:32;2.00;;;1.70;;
19016;SDS011;9641;51.494;6.670;2023-08-12T14:25:59;1.80;;;1.35;;
19016;SDS011;9641;51.494;6.670;2023-08-12T14:28:26;1.52;;;1.42;;
19016;SDS011;9641;51.494;6.670;2023-08-12T14:30:53;1.52;;;1.42;;
19016;SDS011;9641;51.494;6.670;2023-08-12T14:33:20;3.33;;;1.25;;
19016;SDS011;9641;51.494;6.670;2023-08-12T14:35:49;3.47;;;1.60;;
19016;SDS011;9641;51.494;6.670;2023-08-12T14:38:18;2.03;;;1.30;;
19016;SDS011;9641;51.494;6.670;2023-08-12T14:40:49;2.15;;;1.50;;
19016;SDS011;9641;51.494;6.670;2023-08-12T14:43:16;2.83;;;1.50;;
19016;SDS011;9641;51.494;6.670;2023-08-12T14:45:44;2.10;;;1.00;;
19016;SDS011;9641;51.494;6.670;2023-08-12T14:48:11;3.08;;;1.60;;
19016;SDS011;9641;51.494;6.670;2023-08-12T14:50:40;2.17;;;1.20;;
19016;SDS011;9641;51.494;6.670;2023-08-12T14:53:07;2.72;;;1.23;;
19016;SDS011;9641;51.494;6.670;2023-08-12T14:55:34;3.13;;;1.60;;
19016;SDS011;9641;51.494;6.670;2023-08-12T14:58:02;2.53;;;1.38;;
19016;SDS011;9641;51.494;6.670;2023-08-12T15:00:29;2.38;;;1.38;;